createdAt,value
2022-11-04T00:01:48.563Z,17.90
2022-11-04T00:04:19.397Z,17.90
2022-11-04T00:06:48.490Z,17.90
2022-11-04T00:09:20.720Z,17.90
2022-11-04T00:12:06.977Z,18.00
2022-11-04T00:14:36.669Z,17.90
2022-11-04T00:17:22.083Z,17.90
2022-11-04T00:20:10.717Z,17.90
2022-11-04T00:22:58.355Z,17.90
2022-11-04T00:25:45.890Z,17.90
2022-11-04T00:28:34.140Z,17.90
2022-11-04T00:31:20.206Z,17.90
2022-11-04T00:33:48.707Z,17.90
2022-11-04T00:36:17.466Z,17.90
2022-11-04T00:38:45.734Z,17.90
2022-11-04T00:41:27.574Z,17.90
2022-11-04T00:43:57.559Z,17.80
2022-11-04T00:46:25.867Z,17.90
2022-11-04T00:48:53.973Z,17.90
2022-11-04T00:51:22.387Z,17.80
2022-11-04T00:53:50.936Z,17.90
2022-11-04T00:56:20.361Z,17.80
2022-11-04T00:58:49.984Z,17.80
2022-11-04T01:01:19.506Z,17.80
2022-11-04T01:03:49.945Z,17.80
2022-11-04T01:06:19.354Z,17.80
2022-11-04T01:08:48.373Z,17.80
2022-11-04T01:11:17.056Z,17.80
2022-11-04T01:13:46.467Z,17.80
2022-11-04T01:16:14.533Z,17.80
2022-11-04T01:18:42.968Z,17.80
2022-11-04T01:21:14.818Z,17.80
2022-11-04T01:23:45.070Z,17.80
2022-11-04T01:26:16.572Z,17.80
2022-11-04T01:28:46.589Z,17.70
2022-11-04T01:31:17.778Z,17.70
2022-11-04T01:33:46.214Z,17.70
2022-11-04T01:36:15.063Z,17.70
2022-11-04T01:38:43.396Z,17.70
2022-11-04T01:41:19.780Z,17.70
2022-11-04T01:43:53.172Z,17.70
2022-11-04T01:46:36.647Z,17.70
2022-11-04T01:49:28.161Z,17.60
2022-11-04T01:52:01.811Z,17.60
2022-11-04T01:54:31.259Z,17.70
2022-11-04T01:57:03.926Z,17.60
2022-11-04T01:59:39.758Z,17.60
2022-11-04T02:02:09.059Z,17.60
2022-11-04T02:04:39.273Z,17.60
2022-11-04T02:07:10.960Z,17.60
2022-11-04T02:09:41.252Z,17.60
2022-11-04T02:12:27.410Z,17.60
2022-11-04T02:14:59.177Z,17.60
2022-11-04T02:17:47.043Z,17.50
2022-11-04T02:20:37.258Z,17.50
2022-11-04T02:24:08.220Z,17.50
2022-11-04T02:27:21.627Z,17.40
2022-11-04T02:30:05.358Z,17.40
2022-11-04T02:33:07.755Z,17.40
2022-11-04T02:35:48.967Z,17.40
2022-11-04T02:38:32.957Z,17.40
2022-11-04T02:41:14.901Z,17.40
2022-11-04T02:43:58.250Z,17.40
2022-11-04T02:46:36.748Z,17.40
2022-11-04T02:49:15.679Z,17.40
2022-11-04T02:51:53.562Z,17.40
2022-11-04T02:54:29.079Z,17.40
2022-11-04T02:57:01.614Z,17.40
2022-11-04T02:59:38.116Z,17.40
2022-11-04T03:02:19.696Z,17.40
2022-11-04T03:04:52.755Z,17.40
2022-11-04T03:07:28.329Z,17.40
2022-11-04T03:10:02.993Z,17.40
2022-11-04T03:12:40.568Z,17.40
2022-11-04T03:15:18.360Z,17.40
2022-11-04T03:17:53.674Z,17.40
2022-11-04T03:20:27.551Z,17.40
2022-11-04T03:23:00.133Z,17.50
2022-11-04T03:25:37.241Z,17.40
2022-11-04T03:28:19.751Z,17.40
2022-11-04T03:30:54.197Z,17.40
2022-11-04T03:33:31.038Z,17.40
2022-11-04T03:35:59.417Z,17.50
2022-11-04T03:38:27.464Z,17.50
2022-11-04T03:40:55.518Z,17.50
2022-11-04T03:43:28.637Z,17.50
2022-11-04T03:45:57.331Z,17.50
2022-11-04T03:48:27.039Z,17.50
2022-11-04T03:50:55.044Z,17.50
2022-11-04T03:56:25.129Z,17.40
2022-11-04T03:59:11.801Z,17.40
2022-11-04T04:01:53.608Z,17.40
2022-11-04T04:04:30.587Z,17.40
2022-11-04T04:07:06.420Z,17.40
2022-11-04T04:09:43.310Z,17.40
2022-11-04T04:12:25.932Z,17.40
2022-11-04T04:15:03.766Z,17.30
2022-11-04T04:17:38.534Z,17.40
2022-11-04T04:20:19.364Z,17.40
2022-11-04T04:22:53.551Z,17.40
2022-11-04T04:25:42.991Z,17.50
2022-11-04T04:28:14.538Z,17.40
2022-11-04T04:30:44.756Z,17.40
2022-11-04T04:33:17.721Z,17.40
2022-11-04T04:35:53.724Z,17.50
2022-11-04T04:38:42.804Z,17.50
2022-11-04T04:41:35.822Z,17.50
2022-11-04T04:44:22.339Z,17.50
2022-11-04T04:46:54.894Z,17.50
2022-11-04T04:49:22.899Z,17.50
2022-11-04T04:51:52.313Z,17.50
2022-11-04T04:54:20.328Z,17.50
2022-11-04T04:56:48.339Z,17.50
2022-11-04T04:59:16.341Z,17.50
2022-11-04T05:01:44.497Z,17.50
2022-11-04T05:04:12.638Z,17.50
2022-11-04T05:06:40.612Z,17.50
2022-11-04T05:09:09.993Z,17.50
2022-11-04T05:11:38.053Z,17.60
2022-11-04T05:14:06.078Z,17.60
2022-11-04T05:16:39.460Z,17.60
2022-11-04T05:19:08.758Z,17.60
2022-11-04T05:21:37.034Z,17.60
2022-11-04T05:24:05.554Z,17.60
2022-11-04T05:26:34.946Z,17.60
2022-11-04T05:29:03.059Z,17.60
2022-11-04T05:31:31.155Z,17.60
2022-11-04T05:33:59.830Z,17.60
2022-11-04T05:36:27.870Z,17.60
2022-11-04T05:38:56.815Z,17.60
2022-11-04T05:41:27.548Z,17.60
2022-11-04T05:43:59.287Z,17.60
2022-11-04T05:46:28.541Z,17.60
2022-11-04T05:48:56.706Z,17.60
2022-11-04T05:51:27.523Z,17.60
2022-11-04T05:53:55.547Z,17.50
2022-11-04T05:56:23.609Z,17.60
2022-11-04T05:58:51.645Z,17.60
2022-11-04T06:01:32.433Z,17.60
2022-11-04T06:04:02.769Z,17.60
2022-11-04T06:06:33.617Z,17.60
2022-11-04T06:09:01.988Z,17.60
2022-11-04T06:11:32.838Z,17.60
2022-11-04T06:14:01.142Z,17.60
2022-11-04T06:16:30.499Z,17.60
2022-11-04T06:19:01.702Z,17.60
2022-11-04T06:21:34.760Z,17.60
2022-11-04T06:24:02.755Z,17.60
2022-11-04T06:26:31.826Z,17.60
2022-11-04T06:28:59.821Z,17.60
2022-11-04T06:31:27.816Z,17.60
2022-11-04T06:33:57.188Z,17.60
2022-11-04T06:36:25.196Z,17.60
2022-11-04T06:38:53.349Z,17.60
2022-11-04T06:41:21.483Z,17.60
2022-11-04T06:43:49.491Z,17.70
2022-11-04T06:46:30.117Z,17.60
2022-11-04T06:48:59.515Z,17.60
2022-11-04T06:51:27.775Z,17.60
2022-11-04T06:53:55.800Z,17.60
2022-11-04T06:56:24.092Z,17.70
2022-11-04T06:58:54.359Z,17.60
2022-11-04T07:01:26.361Z,17.60
2022-11-04T07:03:56.791Z,17.60
2022-11-04T07:06:27.184Z,17.60
2022-11-04T07:08:57.239Z,17.60
2022-11-04T07:11:26.193Z,17.60
2022-11-04T07:13:54.272Z,17.60
2022-11-04T07:16:22.524Z,17.60
2022-11-04T07:18:51.812Z,17.60
2022-11-04T07:21:20.064Z,17.60
2022-11-04T07:23:49.433Z,17.60
2022-11-04T07:26:17.494Z,17.60
2022-11-04T07:28:45.937Z,17.60
2022-11-04T07:31:16.035Z,17.60
2022-11-04T07:33:44.072Z,17.70
2022-11-04T07:36:13.980Z,17.60
2022-11-04T07:38:42.001Z,17.70
2022-11-04T07:41:11.400Z,17.70
2022-11-04T07:43:39.396Z,17.70
2022-11-04T07:46:10.641Z,17.70
2022-11-04T07:48:39.812Z,17.70
2022-11-04T07:51:10.322Z,17.70
2022-11-04T07:53:38.431Z,17.70
2022-11-04T07:56:11.051Z,17.70
2022-11-04T07:58:41.177Z,17.70
2022-11-04T08:01:13.615Z,17.70
2022-11-04T08:03:41.958Z,17.70
2022-11-04T08:06:13.694Z,17.70
2022-11-04T08:08:43.535Z,17.70
2022-11-04T08:11:17.953Z,17.70
2022-11-04T08:13:48.545Z,17.70
2022-11-04T08:16:19.778Z,17.70
2022-11-04T08:18:49.550Z,17.70
2022-11-04T08:21:18.294Z,17.70
2022-11-04T08:23:48.071Z,17.60
2022-11-04T08:26:19.810Z,17.70
2022-11-04T08:28:49.359Z,17.60
2022-11-04T08:31:20.530Z,17.70
2022-11-04T08:33:48.625Z,17.70
2022-11-04T08:36:21.036Z,17.70
2022-11-04T08:38:49.196Z,17.70
2022-11-04T08:41:21.509Z,17.70
2022-11-04T08:43:51.258Z,17.70
2022-11-04T08:46:20.189Z,17.70
2022-11-04T08:48:49.447Z,17.70
2022-11-04T08:51:21.072Z,17.70
2022-11-04T08:53:49.619Z,17.80
2022-11-04T08:56:21.643Z,17.70
2022-11-04T08:58:51.991Z,17.70
2022-11-04T09:01:21.755Z,17.80
2022-11-04T09:03:51.277Z,17.80
2022-11-04T09:06:23.706Z,17.80
2022-11-04T09:08:52.241Z,17.80
2022-11-04T09:11:20.296Z,17.80
2022-11-04T09:13:49.743Z,17.80
2022-11-04T09:16:17.893Z,17.80
2022-11-04T09:18:45.902Z,17.80
2022-11-04T09:21:14.205Z,17.80
2022-11-04T09:23:42.265Z,17.80
2022-11-04T09:26:13.241Z,17.80
2022-11-04T09:28:41.873Z,17.80
2022-11-04T09:31:14.860Z,17.80
2022-11-04T09:33:43.138Z,17.80
2022-11-04T09:36:14.287Z,17.80
2022-11-04T09:38:44.891Z,17.80
2022-11-04T09:42:06.187Z,17.70
2022-11-04T09:45:19.457Z,17.80
2022-11-04T09:47:43.889Z,17.80
2022-11-04T09:50:23.240Z,17.70
2022-11-04T09:52:57.919Z,17.70
2022-11-04T09:55:34.070Z,17.70
2022-11-04T09:58:03.734Z,17.80
2022-11-04T10:00:36.623Z,17.80
2022-11-04T10:03:27.454Z,17.70
2022-11-04T10:06:16.991Z,17.70
2022-11-04T10:09:01.609Z,17.80
2022-11-04T10:11:41.255Z,17.70
2022-11-04T10:14:39.688Z,17.70
2022-11-04T10:17:27.150Z,17.70
2022-11-04T10:20:20.576Z,17.70
2022-11-04T10:22:59.294Z,17.70
2022-11-04T10:25:37.151Z,17.70
2022-11-04T10:28:08.915Z,17.70
2022-11-04T10:30:37.178Z,17.80
2022-11-04T10:33:17.962Z,17.70
2022-11-04T10:35:53.953Z,17.70
2022-11-04T10:38:34.293Z,17.70
2022-11-04T10:41:17.507Z,17.70
2022-11-04T10:43:45.808Z,17.80
2022-11-04T10:46:39.027Z,17.70
2022-11-04T10:49:50.572Z,17.70
2022-11-04T10:52:36.154Z,17.70
2022-11-04T10:55:05.658Z,17.80
2022-11-04T10:57:33.748Z,17.80
2022-11-04T11:00:05.238Z,17.70
2022-11-04T11:02:48.191Z,17.70
2022-11-04T11:05:25.647Z,17.70
2022-11-04T11:07:58.759Z,17.70
2022-11-04T11:10:30.491Z,17.70
2022-11-04T11:13:02.070Z,17.80
2022-11-04T11:15:35.646Z,17.70
2022-11-04T11:18:16.303Z,17.70
2022-11-04T11:20:49.935Z,17.60
2022-11-04T11:23:40.905Z,17.70
2022-11-04T11:26:14.034Z,17.70
2022-11-04T11:28:53.143Z,17.70
2022-11-04T11:31:26.670Z,17.70
2022-11-04T11:34:00.310Z,17.70
2022-11-04T11:36:33.840Z,17.70
2022-11-04T11:39:07.584Z,17.70
2022-11-04T11:41:53.367Z,17.70
2022-11-04T11:44:28.601Z,17.70
2022-11-04T11:47:01.645Z,17.70
2022-11-04T11:49:33.829Z,17.70
2022-11-04T11:52:36.921Z,17.70
2022-11-04T11:55:16.462Z,17.70
2022-11-04T12:00:59.097Z,17.70
2022-11-04T12:09:42.291Z,17.70
2022-11-04T12:12:34.313Z,17.70
2022-11-04T12:15:29.430Z,17.70
2022-11-04T12:18:18.266Z,17.60
2022-11-04T12:20:55.984Z,17.70
2022-11-04T12:23:32.273Z,17.70
2022-11-04T12:26:21.206Z,17.70
2022-11-04T12:29:27.558Z,17.60
2022-11-04T12:32:07.731Z,17.60
2022-11-04T12:34:53.420Z,17.60
2022-11-04T12:37:35.350Z,17.60
2022-11-04T12:40:21.277Z,17.60
2022-11-04T12:43:16.609Z,17.60
2022-11-04T12:46:09.941Z,17.60
2022-11-04T12:49:08.681Z,17.60
2022-11-04T12:51:50.259Z,17.60
2022-11-04T12:54:57.257Z,17.60
2022-11-04T12:57:37.410Z,17.60
2022-11-04T13:00:14.878Z,17.60
2022-11-04T13:02:52.051Z,17.60
2022-11-04T13:05:37.303Z,17.60
2022-11-04T13:08:19.906Z,17.60
2022-11-04T13:10:55.089Z,17.60
2022-11-04T13:13:30.500Z,17.60
2022-11-04T13:16:03.630Z,17.60
2022-11-04T13:18:40.995Z,17.60
2022-11-04T13:21:16.576Z,17.60
2022-11-04T13:23:53.950Z,17.60
2022-11-04T13:26:21.960Z,17.70
2022-11-04T13:29:04.441Z,17.60
2022-11-04T13:31:52.374Z,17.60
2022-11-04T13:34:39.329Z,17.60
2022-11-04T13:37:19.283Z,17.60
2022-11-04T13:39:54.647Z,17.60
2022-11-04T13:43:18.352Z,17.60
2022-11-04T13:45:52.339Z,17.60
2022-11-04T13:48:24.581Z,17.60
2022-11-04T13:51:03.529Z,17.60
2022-11-04T13:53:47.594Z,17.60
2022-11-04T13:56:35.261Z,17.60
2022-11-04T13:59:21.755Z,17.60
2022-11-04T14:01:50.015Z,17.60
2022-11-04T14:04:30.389Z,17.60
2022-11-04T14:07:03.941Z,17.60
2022-11-04T14:09:55.763Z,17.50
2022-11-04T14:12:35.452Z,17.60
2022-11-04T14:15:13.881Z,17.60
2022-11-04T14:18:01.772Z,17.60
2022-11-04T14:20:33.948Z,17.60
2022-11-04T14:23:07.905Z,17.60
2022-11-04T14:25:40.072Z,17.60
2022-11-04T14:28:29.634Z,17.60
2022-11-04T14:31:00.668Z,17.60
2022-11-04T14:33:53.682Z,17.50
2022-11-04T14:36:39.033Z,17.50
2022-11-04T14:39:25.207Z,17.50
2022-11-04T14:42:02.564Z,17.50
2022-11-04T14:44:35.333Z,17.60
2022-11-04T14:47:18.532Z,17.50
2022-11-04T14:49:50.333Z,17.60
2022-11-04T14:52:27.382Z,17.50
2022-11-04T14:55:05.299Z,17.50
2022-11-04T14:57:39.938Z,17.50
2022-11-04T15:00:34.730Z,17.50
2022-11-04T15:03:57.877Z,17.50
2022-11-04T15:06:10.888Z,17.50
2022-11-04T15:08:45.491Z,17.50
2022-11-04T15:11:39.440Z,17.50
2022-11-04T15:14:22.122Z,17.50
2022-11-04T15:16:53.663Z,17.50
2022-11-04T15:19:30.920Z,17.50
2022-11-04T15:22:02.101Z,17.50
2022-11-04T15:24:31.205Z,17.50
2022-11-04T15:27:06.566Z,17.50
2022-11-04T15:29:34.952Z,17.50
2022-11-04T15:32:05.730Z,17.50
2022-11-04T15:34:36.454Z,17.50
2022-11-04T15:37:07.039Z,17.50
2022-11-04T15:39:39.862Z,17.50
2022-11-04T15:42:35.206Z,17.50
2022-11-04T15:45:28.260Z,17.40
2022-11-04T15:48:26.705Z,17.40
2022-11-04T15:51:12.141Z,17.40
2022-11-04T15:53:54.629Z,17.40
2022-11-04T15:56:27.428Z,17.40
2022-11-04T15:58:59.560Z,17.40
2022-11-04T16:01:29.149Z,17.40
2022-11-04T16:04:01.236Z,17.40
2022-11-04T16:06:39.009Z,17.40
2022-11-04T16:09:22.153Z,17.40
2022-11-04T16:12:12.570Z,17.30
2022-11-04T16:14:50.156Z,17.30
2022-11-04T16:17:18.202Z,17.40
2022-11-04T16:19:50.146Z,17.40
2022-11-04T16:22:25.137Z,17.40
2022-11-04T16:24:55.061Z,17.40
2022-11-04T16:27:24.837Z,17.40
2022-11-04T16:30:10.422Z,17.30
2022-11-04T16:32:44.415Z,17.30
2022-11-04T16:35:21.752Z,17.30
2022-11-04T16:37:50.725Z,17.30
2022-11-04T16:40:20.285Z,17.40
2022-11-04T16:42:50.676Z,17.40
2022-11-04T16:45:27.199Z,17.30
2022-11-04T16:47:55.946Z,17.30
2022-11-04T16:50:25.578Z,17.30
2022-11-04T16:52:54.284Z,17.30
2022-11-04T16:55:24.305Z,17.30
2022-11-04T16:57:59.911Z,17.30
2022-11-04T17:00:32.865Z,17.30
2022-11-04T17:03:01.216Z,17.30
2022-11-04T17:05:29.277Z,17.30
2022-11-04T17:08:04.500Z,17.30
2022-11-04T17:10:35.977Z,17.30
2022-11-04T17:13:04.067Z,17.30
2022-11-04T17:15:33.528Z,17.30
2022-11-04T17:18:01.607Z,17.30
2022-11-04T17:20:31.740Z,17.30
2022-11-04T17:23:00.772Z,17.30
2022-11-04T17:25:31.172Z,17.30
2022-11-04T17:27:59.307Z,17.30
2022-11-04T17:30:27.368Z,17.30
2022-11-04T17:32:57.126Z,17.30
2022-11-04T17:35:25.205Z,17.30
2022-11-04T17:37:54.438Z,17.30
2022-11-04T17:40:24.752Z,17.30
2022-11-04T17:43:12.588Z,17.30
2022-11-04T17:45:42.084Z,17.20
2022-11-04T17:48:14.032Z,17.20
2022-11-04T17:50:42.322Z,17.20
2022-11-04T17:53:10.919Z,17.20
2022-11-04T17:55:41.250Z,17.20
2022-11-04T17:58:09.651Z,17.10
2022-11-04T18:00:37.998Z,17.20
2022-11-04T18:03:06.788Z,17.20
2022-11-04T18:05:36.410Z,17.20
2022-11-04T18:08:04.648Z,17.20
2022-11-04T18:10:32.910Z,17.20
2022-11-04T18:13:01.019Z,17.20
2022-11-04T18:15:30.288Z,17.20
2022-11-04T18:17:58.406Z,17.20
2022-11-04T18:20:26.452Z,17.20
2022-11-04T18:22:55.831Z,17.20
2022-11-04T18:25:23.865Z,17.20
2022-11-04T18:27:51.867Z,17.20
2022-11-04T18:30:20.172Z,17.20
2022-11-04T18:32:48.193Z,17.20
2022-11-04T18:35:16.417Z,17.20
2022-11-04T18:37:47.265Z,17.20
2022-11-04T18:40:17.787Z,17.00
2022-11-04T18:42:46.117Z,17.20
2022-11-04T18:45:14.116Z,17.20
2022-11-04T18:47:42.156Z,17.20
2022-11-04T18:50:11.303Z,17.20
2022-11-04T18:52:40.344Z,17.20
2022-11-04T18:55:10.151Z,17.10
2022-11-04T18:57:39.567Z,17.00
2022-11-04T19:00:15.784Z,17.10
2022-11-04T19:02:45.085Z,17.10
2022-11-04T19:05:13.912Z,17.10
2022-11-04T19:07:42.398Z,17.10
2022-11-04T19:10:11.439Z,17.10
2022-11-04T19:13:12.995Z,17.10
2022-11-04T19:15:41.070Z,17.10
2022-11-04T19:18:09.968Z,17.10
2022-11-04T19:20:38.689Z,17.10
2022-11-04T19:23:06.921Z,17.10
2022-11-04T19:25:35.280Z,17.10
2022-11-04T19:28:32.776Z,17.10
2022-11-04T19:30:59.749Z,17.00
2022-11-04T19:33:28.098Z,17.10
2022-11-04T19:35:56.674Z,17.10
2022-11-04T19:38:24.925Z,17.10
2022-11-04T19:40:54.321Z,17.10
2022-11-04T19:43:23.800Z,17.10
2022-11-04T19:45:52.161Z,17.10
2022-11-04T19:48:20.736Z,17.10
2022-11-04T19:50:51.321Z,17.10
2022-11-04T19:53:20.209Z,17.10
2022-11-04T19:55:53.723Z,17.10
2022-11-04T19:58:23.897Z,17.10
2022-11-04T20:00:54.342Z,17.10
2022-11-04T20:03:22.616Z,17.10
2022-11-04T20:05:50.713Z,17.10
2022-11-04T20:08:19.449Z,17.10
2022-11-04T20:10:47.663Z,17.10
2022-11-04T20:13:36.235Z,17.00
2022-11-04T20:16:16.947Z,17.00
2022-11-04T20:18:47.086Z,17.00
2022-11-04T20:21:16.599Z,17.00
2022-11-04T20:23:45.056Z,17.00
2022-11-04T20:26:20.451Z,17.00
2022-11-04T20:28:49.664Z,17.00
2022-11-04T20:31:23.206Z,17.00
2022-11-04T20:33:53.665Z,17.00
2022-11-04T20:36:27.953Z,17.00
2022-11-04T20:39:00.121Z,17.00
2022-11-04T20:41:29.029Z,17.00
2022-11-04T20:43:58.250Z,17.00
2022-11-04T20:46:30.485Z,17.00
2022-11-04T20:49:00.016Z,17.00
2022-11-04T20:51:30.725Z,17.00
2022-11-04T20:54:03.062Z,17.00
2022-11-04T20:56:33.911Z,17.00
2022-11-04T20:59:03.118Z,17.00
2022-11-04T21:01:36.162Z,17.00
2022-11-04T21:04:07.142Z,17.00
2022-11-04T21:06:38.616Z,17.00
2022-11-04T21:09:09.294Z,17.00
2022-11-04T21:11:39.028Z,17.00
2022-11-04T21:14:08.724Z,17.00
2022-11-04T21:16:38.622Z,17.00
2022-11-04T21:19:07.721Z,17.00
2022-11-04T21:21:36.200Z,17.00
2022-11-04T21:24:07.401Z,17.00
2022-11-04T21:26:37.067Z,17.00
2022-11-04T21:29:08.575Z,17.00
2022-11-04T21:31:38.214Z,17.00
2022-11-04T21:34:06.607Z,17.00
2022-11-04T21:36:35.665Z,17.00
2022-11-04T21:39:04.480Z,17.00
2022-11-04T21:41:37.127Z,17.00
2022-11-04T21:44:08.283Z,17.00
2022-11-04T21:46:38.170Z,17.00
2022-11-04T21:49:06.596Z,17.00
2022-11-04T21:51:35.536Z,17.00
2022-11-04T21:54:07.955Z,16.90
2022-11-04T21:56:36.543Z,17.00
2022-11-04T21:59:05.689Z,16.90
2022-11-04T22:01:34.380Z,16.90
2022-11-04T22:04:04.357Z,16.80
2022-11-04T22:06:35.681Z,16.90
2022-11-04T22:09:06.474Z,16.90
2022-11-04T22:11:38.912Z,16.90
2022-11-04T22:14:09.137Z,16.90
2022-11-04T22:16:40.196Z,16.90
2022-11-04T22:19:13.374Z,16.90
2022-11-04T22:21:44.081Z,16.90
2022-11-04T22:24:14.153Z,16.90
2022-11-04T22:26:42.808Z,16.80
2022-11-04T22:29:11.396Z,16.90
2022-11-04T22:31:42.641Z,16.90
2022-11-04T22:34:12.115Z,16.90
2022-11-04T22:36:40.202Z,16.90
2022-11-04T22:39:13.379Z,16.90
2022-11-04T22:41:46.088Z,16.90
2022-11-04T22:44:14.249Z,16.90
2022-11-04T22:46:42.786Z,16.90
2022-11-04T22:49:12.975Z,16.90
2022-11-04T22:51:41.021Z,16.90
2022-11-04T22:54:11.448Z,16.90
2022-11-04T22:56:39.577Z,16.90
2022-11-04T22:59:07.861Z,16.90
2022-11-04T23:01:36.771Z,16.90
2022-11-04T23:04:05.670Z,16.90
2022-11-04T23:06:35.081Z,16.90
2022-11-04T23:09:03.335Z,16.90
2022-11-04T23:11:52.299Z,16.80
2022-11-04T23:14:40.560Z,16.90
2022-11-04T23:17:34.483Z,16.80
2022-11-04T23:20:03.529Z,16.90
2022-11-04T23:22:50.878Z,16.80
2022-11-04T23:25:19.357Z,16.90
2022-11-04T23:28:08.286Z,16.70
2022-11-04T23:30:39.066Z,16.80
2022-11-04T23:33:10.469Z,16.70
2022-11-04T23:35:59.157Z,16.80
2022-11-04T23:38:29.605Z,16.80
2022-11-04T23:41:18.841Z,16.80
2022-11-04T23:43:47.205Z,16.80
2022-11-04T23:46:37.955Z,16.80
2022-11-04T23:49:28.796Z,16.80
2022-11-04T23:52:22.664Z,16.80
2022-11-04T23:55:09.511Z,16.80
2022-11-04T23:57:55.142Z,16.80
